createdAt,value
2017-10-31T00:00:23.067Z,94.30
2017-10-31T00:02:51.209Z,93.50
2017-10-31T00:05:19.336Z,93.60
2017-10-31T00:07:47.475Z,94.30
2017-10-31T00:10:15.620Z,93.50
2017-10-31T00:12:43.760Z,93.40
2017-10-31T00:15:11.865Z,93.10
2017-10-31T00:17:40.023Z,93.40
2017-10-31T00:20:08.480Z,93.30
2017-10-31T00:22:37.365Z,93.70
2017-10-31T00:25:06.241Z,93.80
2017-10-31T00:27:34.392Z,93.60
2017-10-31T00:30:02.566Z,93.90
2017-10-31T00:32:30.707Z,94.10
2017-10-31T00:34:59.227Z,94.60
2017-10-31T00:37:27.543Z,94.60
2017-10-31T00:39:55.675Z,94.60
2017-10-31T00:42:23.818Z,94.80
2017-10-31T00:44:51.952Z,95.10
2017-10-31T00:47:20.095Z,95.10
2017-10-31T00:49:48.245Z,95.20
2017-10-31T00:52:16.356Z,95.10
2017-10-31T00:54:44.488Z,95.00
2017-10-31T00:57:12.610Z,95.00
2017-10-31T00:59:41.103Z,95.30
2017-10-31T01:02:09.991Z,95.40
2017-10-31T01:04:38.127Z,95.30
2017-10-31T01:07:06.267Z,95.50
2017-10-31T01:09:34.418Z,95.60
2017-10-31T01:12:03.299Z,95.60
2017-10-31T01:14:31.430Z,95.60
2017-10-31T01:16:59.547Z,95.60
2017-10-31T01:19:27.703Z,95.60
2017-10-31T01:21:56.203Z,95.60
2017-10-31T01:24:24.332Z,95.60
2017-10-31T01:26:52.473Z,95.50
2017-10-31T01:29:20.599Z,95.60
2017-10-31T01:31:48.844Z,95.80
2017-10-31T01:34:16.997Z,95.90
2017-10-31T01:36:45.137Z,96.10
2017-10-31T01:39:14.055Z,96.30
2017-10-31T01:41:42.673Z,96.30
2017-10-31T01:44:10.831Z,96.30
2017-10-31T01:46:38.964Z,96.30
2017-10-31T01:49:07.119Z,96.10
2017-10-31T01:51:35.288Z,95.90
2017-10-31T01:54:03.508Z,95.90
2017-10-31T01:56:31.652Z,96.10
2017-10-31T01:58:59.827Z,96.40
2017-10-31T02:01:28.027Z,97.20
2017-10-31T02:03:56.919Z,96.30
2017-10-31T02:06:26.083Z,96.60
2017-10-31T02:08:54.229Z,96.60
2017-10-31T02:11:22.384Z,96.80
2017-10-31T02:13:50.512Z,96.80
2017-10-31T02:16:18.684Z,96.80
2017-10-31T02:18:46.849Z,96.70
2017-10-31T02:21:15.067Z,97.20
2017-10-31T02:23:44.125Z,96.60
2017-10-31T02:26:12.707Z,96.60
2017-10-31T02:28:41.247Z,96.60
2017-10-31T02:31:09.491Z,96.50
2017-10-31T02:33:37.715Z,96.40
2017-10-31T02:36:05.915Z,96.30
2017-10-31T02:38:47.748Z,96.30
2017-10-31T02:41:16.737Z,96.30
2017-10-31T02:43:45.016Z,96.20
2017-10-31T02:46:13.868Z,96.10
2017-10-31T02:48:42.100Z,96.30
2017-10-31T02:51:10.316Z,96.20
2017-10-31T02:53:38.548Z,96.20
2017-10-31T02:56:06.792Z,96.20
2017-10-31T02:58:35.003Z,96.20
2017-10-31T03:01:03.232Z,96.10
2017-10-31T03:03:31.440Z,96.10
2017-10-31T03:05:59.627Z,96.00
2017-10-31T03:08:27.835Z,96.00
2017-10-31T03:10:56.047Z,95.80
2017-10-31T03:13:24.715Z,95.90
2017-10-31T03:15:53.015Z,95.90
2017-10-31T03:18:21.218Z,96.00
2017-10-31T03:20:49.415Z,96.10
2017-10-31T03:23:18.552Z,96.30
2017-10-31T03:25:46.791Z,96.50
2017-10-31T03:28:15.004Z,96.50
2017-10-31T03:30:43.236Z,97.20
2017-10-31T03:33:11.412Z,96.70
2017-10-31T03:35:40.035Z,96.80
2017-10-31T03:38:08.239Z,96.60
2017-10-31T03:40:36.447Z,96.50
2017-10-31T03:43:04.715Z,96.50
2017-10-31T03:45:32.915Z,97.30
2017-10-31T03:48:01.166Z,96.50
2017-10-31T03:50:29.420Z,96.50
2017-10-31T03:52:57.653Z,96.60
2017-10-31T03:55:25.900Z,96.70
2017-10-31T03:57:54.143Z,96.90
2017-10-31T04:00:22.387Z,96.90
2017-10-31T04:02:50.620Z,96.90
2017-10-31T04:05:18.824Z,96.60
2017-10-31T04:07:47.067Z,96.50
2017-10-31T04:10:15.300Z,96.20
2017-10-31T04:12:43.541Z,95.90
2017-10-31T04:15:11.699Z,95.90
2017-10-31T04:17:39.902Z,95.80
2017-10-31T04:20:08.613Z,96.10
2017-10-31T04:22:36.747Z,96.30
2017-10-31T04:25:04.903Z,96.40
2017-10-31T04:27:33.064Z,96.70
2017-10-31T04:30:01.205Z,96.80
2017-10-31T04:32:30.100Z,97.50
2017-10-31T04:34:59.003Z,97.60
2017-10-31T04:37:27.879Z,97.50
2017-10-31T04:39:57.111Z,97.50
2017-10-31T04:42:25.234Z,97.40
2017-10-31T04:44:53.408Z,97.40
2017-10-31T04:47:22.044Z,97.50
2017-10-31T04:49:50.219Z,97.50
2017-10-31T04:52:18.372Z,97.40
2017-10-31T04:54:47.417Z,97.30
2017-10-31T04:57:15.619Z,97.00
2017-10-31T04:59:43.781Z,97.20
2017-10-31T05:02:11.936Z,97.10
2017-10-31T05:04:40.058Z,97.20
2017-10-31T05:07:08.274Z,97.00
2017-10-31T05:09:36.387Z,96.90
2017-10-31T05:12:06.419Z,97.20
2017-10-31T05:14:35.268Z,97.00
2017-10-31T05:17:03.412Z,96.90
2017-10-31T05:19:31.544Z,97.10
2017-10-31T05:21:59.660Z,97.20
2017-10-31T05:24:27.799Z,97.10
2017-10-31T05:26:56.677Z,97.30
2017-10-31T05:29:24.788Z,96.90
2017-10-31T05:31:52.885Z,97.10
2017-10-31T05:34:20.972Z,97.10
2017-10-31T05:36:49.375Z,97.10
2017-10-31T05:39:17.513Z,97.30
2017-10-31T05:41:45.661Z,97.30
2017-10-31T05:44:13.787Z,97.30
2017-10-31T05:46:41.944Z,97.30
2017-10-31T05:49:10.063Z,97.40
2017-10-31T05:51:38.206Z,97.40
2017-10-31T05:54:06.359Z,97.40
2017-10-31T05:56:34.475Z,97.30
2017-10-31T05:59:02.635Z,97.40
2017-10-31T06:01:31.548Z,97.40
2017-10-31T06:04:00.412Z,97.60
2017-10-31T06:06:28.603Z,97.60
2017-10-31T06:08:56.722Z,97.70
2017-10-31T06:11:24.863Z,97.90
2017-10-31T06:13:54.163Z,97.70
2017-10-31T06:16:23.056Z,97.60
2017-10-31T06:18:51.899Z,97.80
2017-10-31T06:21:20.903Z,97.70
2017-10-31T06:25:57.148Z,98.10
2017-10-31T06:30:33.592Z,98.10
2017-10-31T06:33:02.453Z,98.50
2017-10-31T06:35:30.587Z,98.50
2017-10-31T06:37:58.735Z,98.80
2017-10-31T06:40:26.867Z,98.60
2017-10-31T06:42:55.076Z,98.20
2017-10-31T06:45:23.220Z,98.00
2017-10-31T06:47:51.358Z,98.30
2017-10-31T06:50:19.491Z,98.30
2017-10-31T06:52:48.720Z,98.10
2017-10-31T06:55:16.868Z,98.00
2017-10-31T06:57:45.388Z,97.80
2017-10-31T07:00:13.527Z,97.60
2017-10-31T07:02:42.384Z,97.60
2017-10-31T07:05:10.508Z,97.60
2017-10-31T07:07:39.211Z,97.50
2017-10-31T07:10:07.387Z,97.80
2017-10-31T07:12:35.521Z,97.80
2017-10-31T07:15:03.723Z,97.90
2017-10-31T07:17:31.859Z,98.00
2017-10-31T07:20:00.050Z,97.90
2017-10-31T07:22:28.172Z,98.00
2017-10-31T07:24:56.315Z,97.70
2017-10-31T07:27:24.454Z,97.80
2017-10-31T07:29:52.560Z,97.50
2017-10-31T07:32:20.682Z,97.50
2017-10-31T07:34:48.811Z,97.30
2017-10-31T07:37:16.976Z,97.10
2017-10-31T07:39:45.116Z,96.90
2017-10-31T07:42:13.268Z,96.50
2017-10-31T07:44:41.381Z,96.30
2017-10-31T07:47:09.547Z,96.40
2017-10-31T07:49:37.660Z,96.50
2017-10-31T07:52:05.879Z,96.50
2017-10-31T07:54:34.392Z,96.40
2017-10-31T07:57:03.273Z,96.60
2017-10-31T07:59:32.552Z,96.70
2017-10-31T08:02:00.668Z,96.50
2017-10-31T08:04:28.795Z,96.60
2017-10-31T08:06:56.936Z,96.40
2017-10-31T08:09:25.087Z,96.10
2017-10-31T08:11:53.959Z,95.80
2017-10-31T08:14:22.823Z,95.60
2017-10-31T08:16:51.007Z,95.60
2017-10-31T08:19:20.260Z,95.50
2017-10-31T08:21:48.400Z,95.50
2017-10-31T08:24:16.583Z,95.40
2017-10-31T08:26:45.465Z,95.30
2017-10-31T08:29:14.409Z,95.80
2017-10-31T08:31:42.566Z,94.90
2017-10-31T08:34:10.815Z,95.10
2017-10-31T08:36:39.004Z,95.30
2017-10-31T08:39:07.120Z,95.30
2017-10-31T08:41:35.778Z,95.30
2017-10-31T08:44:04.003Z,95.10
2017-10-31T08:46:32.155Z,95.50
2017-10-31T08:49:00.327Z,94.50
2017-10-31T08:51:28.503Z,94.20
2017-10-31T08:53:56.676Z,94.00
2017-10-31T08:56:24.963Z,93.70
2017-10-31T08:58:53.094Z,93.30
2017-10-31T09:01:36.835Z,93.00
2017-10-31T09:04:05.243Z,92.90
2017-10-31T09:06:33.432Z,92.70
2017-10-31T09:09:01.592Z,92.30
2017-10-31T09:11:29.728Z,92.00
2017-10-31T09:13:57.876Z,91.90
2017-10-31T09:16:26.007Z,91.40
2017-10-31T09:18:54.163Z,90.90
2017-10-31T09:21:22.352Z,90.60
2017-10-31T09:23:50.485Z,90.20
2017-10-31T09:26:18.599Z,89.90
2017-10-31T09:28:46.755Z,89.60
2017-10-31T09:31:14.880Z,89.30
2017-10-31T09:33:48.880Z,89.20
2017-10-31T09:36:17.288Z,88.80
2017-10-31T09:38:46.169Z,87.90
2017-10-31T09:41:15.052Z,87.80
2017-10-31T09:43:43.210Z,87.80
2017-10-31T09:46:11.365Z,87.70
2017-10-31T09:48:39.908Z,87.60
2017-10-31T09:51:08.792Z,88.30
2017-10-31T09:53:37.668Z,88.70
2017-10-31T09:56:05.823Z,88.50
2017-10-31T09:58:34.031Z,88.90
2017-10-31T10:01:03.830Z,88.60
2017-10-31T10:03:37.189Z,88.50
2017-10-31T10:06:06.952Z,88.60
2017-10-31T10:08:37.172Z,88.70
2017-10-31T10:11:08.180Z,88.20
2017-10-31T10:13:36.781Z,88.10
2017-10-31T10:16:05.676Z,87.80
2017-10-31T10:18:35.457Z,88.90
2017-10-31T10:21:08.172Z,88.30
2017-10-31T10:23:37.368Z,88.00
2017-10-31T10:26:07.252Z,88.10
2017-10-31T10:28:36.003Z,88.00
2017-10-31T10:31:05.639Z,88.30
2017-10-31T10:33:34.225Z,88.40
2017-10-31T10:36:03.537Z,88.30
2017-10-31T10:38:32.769Z,88.00
2017-10-31T10:41:01.120Z,87.70
2017-10-31T10:43:30.622Z,87.60
2017-10-31T10:46:00.101Z,87.30
2017-10-31T10:48:30.208Z,87.40
2017-10-31T10:50:59.315Z,87.20
2017-10-31T10:53:28.218Z,87.00
2017-10-31T10:55:57.308Z,86.30
2017-10-31T10:58:27.016Z,85.90
2017-10-31T11:00:56.819Z,85.90
2017-10-31T11:03:26.135Z,85.80
2017-10-31T11:05:56.357Z,85.40
2017-10-31T11:08:26.830Z,85.20
2017-10-31T11:10:56.174Z,85.60
2017-10-31T11:13:25.013Z,85.60
2017-10-31T11:16:00.480Z,85.70
2017-10-31T11:18:29.532Z,85.70
2017-10-31T11:20:58.268Z,86.00
2017-10-31T11:23:26.869Z,86.20
2017-10-31T11:25:55.783Z,86.20
2017-10-31T11:28:25.348Z,86.10
2017-10-31T11:30:53.636Z,86.50
2017-10-31T11:33:48.328Z,87.20
2017-10-31T11:36:17.084Z,88.00
2017-10-31T11:38:47.568Z,88.80
2017-10-31T11:41:16.036Z,89.30
2017-10-31T11:43:44.786Z,89.80
2017-10-31T11:46:14.009Z,90.00
2017-10-31T11:48:42.874Z,90.10
2017-10-31T11:51:11.760Z,90.30
2017-10-31T11:53:41.220Z,90.30
2017-10-31T11:56:10.851Z,90.50
2017-10-31T11:58:43.844Z,90.30
2017-10-31T12:01:13.920Z,90.60
2017-10-31T12:03:42.279Z,89.80
2017-10-31T12:06:11.944Z,89.10
2017-10-31T12:08:41.776Z,89.10
2017-10-31T12:11:11.597Z,88.60
2017-10-31T12:13:40.787Z,88.40
2017-10-31T12:16:09.950Z,88.10
2017-10-31T12:18:38.573Z,88.10
2017-10-31T12:21:07.305Z,87.70
2017-10-31T12:23:35.633Z,87.70
2017-10-31T12:26:04.648Z,88.00
2017-10-31T12:28:33.301Z,87.90
2017-10-31T12:31:06.578Z,87.50
2017-10-31T12:33:35.633Z,87.80
2017-10-31T12:36:05.078Z,88.00
2017-10-31T12:38:33.919Z,87.70
2017-10-31T12:41:02.738Z,87.60
2017-10-31T12:43:31.865Z,87.50
2017-10-31T12:46:00.198Z,87.30
2017-10-31T12:48:30.204Z,87.10
2017-10-31T12:50:58.513Z,87.00
2017-10-31T12:53:27.656Z,87.10
2017-10-31T12:56:00.273Z,87.10
2017-10-31T12:58:30.581Z,86.80
2017-10-31T13:01:00.367Z,86.50
2017-10-31T13:03:30.621Z,86.50
2017-10-31T13:06:01.104Z,86.70
2017-10-31T13:08:29.724Z,85.80
2017-10-31T13:10:59.266Z,85.70
2017-10-31T13:13:29.463Z,85.70
2017-10-31T13:15:58.864Z,85.60
2017-10-31T13:18:28.252Z,85.50
2017-10-31T13:20:57.465Z,85.40
2017-10-31T13:23:27.584Z,85.30
2017-10-31T13:25:57.764Z,85.00
2017-10-31T13:28:31.678Z,84.10
2017-10-31T13:31:04.635Z,84.00
2017-10-31T13:33:39.264Z,84.00
2017-10-31T13:36:11.280Z,84.00
2017-10-31T13:38:44.069Z,83.50
2017-10-31T13:41:16.764Z,83.10
2017-10-31T13:43:49.831Z,83.10
2017-10-31T13:46:20.572Z,82.00
2017-10-31T13:48:51.588Z,82.00
2017-10-31T13:51:23.743Z,81.60
2017-10-31T13:53:55.450Z,80.80
2017-10-31T13:56:26.272Z,80.70
2017-10-31T13:58:56.405Z,81.30
2017-10-31T14:01:27.131Z,81.20
2017-10-31T14:04:00.584Z,81.30
2017-10-31T14:06:31.448Z,81.10
2017-10-31T14:09:03.574Z,81.50
2017-10-31T14:11:35.996Z,81.40
2017-10-31T14:14:06.000Z,81.50
2017-10-31T14:16:38.231Z,81.50
2017-10-31T14:19:07.553Z,81.60
2017-10-31T14:21:38.123Z,81.60
2017-10-31T14:24:08.844Z,81.60
2017-10-31T14:26:37.470Z,81.50
2017-10-31T14:29:07.364Z,81.60
2017-10-31T14:31:38.724Z,81.60
2017-10-31T14:34:07.497Z,81.60
2017-10-31T14:36:37.159Z,81.70
2017-10-31T14:39:08.151Z,81.60
2017-10-31T14:41:37.228Z,81.50
2017-10-31T14:44:06.931Z,81.40
2017-10-31T14:46:37.864Z,81.40
2017-10-31T14:49:06.772Z,82.50
2017-10-31T14:51:39.363Z,81.80
2017-10-31T14:54:11.803Z,82.00
2017-10-31T14:56:41.276Z,82.00
2017-10-31T14:59:09.869Z,82.40
2017-10-31T15:01:38.165Z,82.80
2017-10-31T15:04:06.762Z,83.10
2017-10-31T15:06:36.103Z,83.20
2017-10-31T15:09:07.040Z,83.30
2017-10-31T15:11:36.388Z,83.70
2017-10-31T15:14:05.128Z,83.90
2017-10-31T15:16:37.594Z,84.10
2017-10-31T15:19:08.677Z,84.00
2017-10-31T15:21:37.736Z,84.20
2017-10-31T15:24:08.133Z,85.10
2017-10-31T15:26:38.705Z,85.40
2017-10-31T15:29:07.776Z,85.30
2017-10-31T15:31:37.047Z,85.50
2017-10-31T15:34:05.360Z,85.80
2017-10-31T15:36:33.704Z,85.80
2017-10-31T15:39:02.824Z,85.50
2017-10-31T15:41:32.061Z,85.50
2017-10-31T15:44:07.072Z,85.50
2017-10-31T15:46:38.021Z,85.60
2017-10-31T15:49:07.453Z,85.50
2017-10-31T15:51:36.171Z,85.40
2017-10-31T15:54:09.572Z,85.60
2017-10-31T15:56:38.485Z,85.40
2017-10-31T15:59:08.249Z,85.60
2017-10-31T16:01:36.996Z,85.60
2017-10-31T16:04:06.424Z,85.60
2017-10-31T16:06:34.780Z,85.60
2017-10-31T16:09:05.183Z,86.00
2017-10-31T16:11:34.504Z,86.00
2017-10-31T16:14:04.212Z,86.20
2017-10-31T16:16:33.717Z,86.20
2017-10-31T16:19:03.372Z,86.20
2017-10-31T16:21:31.924Z,86.20
2017-10-31T16:24:01.125Z,86.50
2017-10-31T16:26:34.260Z,86.60
2017-10-31T16:29:04.219Z,86.50
2017-10-31T16:31:33.184Z,86.50
2017-10-31T16:36:38.524Z,86.60
2017-10-31T16:39:09.643Z,86.80
2017-10-31T16:41:39.137Z,86.90
2017-10-31T16:44:08.556Z,87.10
2017-10-31T16:46:37.177Z,87.80
2017-10-31T16:49:06.102Z,87.20
2017-10-31T16:51:36.748Z,87.50
2017-10-31T16:54:05.756Z,87.40
2017-10-31T16:56:34.515Z,87.70
2017-10-31T16:59:03.100Z,87.90
2017-10-31T17:01:32.920Z,88.30
2017-10-31T17:04:04.472Z,88.20
2017-10-31T17:06:33.823Z,88.30
2017-10-31T17:09:03.176Z,88.40
2017-10-31T17:11:32.559Z,88.80
2017-10-31T17:14:02.241Z,88.60
2017-10-31T17:16:30.811Z,88.80
2017-10-31T17:18:59.291Z,88.90
2017-10-31T17:21:28.841Z,89.00
2017-10-31T17:23:58.404Z,89.10
2017-10-31T17:26:28.123Z,89.00
2017-10-31T17:28:57.005Z,89.20
2017-10-31T17:31:26.087Z,89.30
2017-10-31T17:33:55.641Z,89.20
2017-10-31T17:36:24.400Z,89.10
2017-10-31T17:38:54.141Z,89.10
2017-10-31T17:41:23.556Z,89.10
2017-10-31T17:43:53.589Z,89.10
2017-10-31T17:46:25.450Z,89.00
2017-10-31T17:48:53.788Z,88.90
2017-10-31T17:51:22.093Z,89.00
2017-10-31T17:53:51.556Z,89.10
2017-10-31T17:56:21.212Z,89.10
2017-10-31T17:58:49.524Z,88.90
2017-10-31T18:01:17.836Z,89.00
2017-10-31T18:03:46.451Z,89.00
2017-10-31T18:06:18.004Z,88.90
2017-10-31T18:08:47.936Z,88.80
2017-10-31T18:11:17.679Z,88.80
2017-10-31T18:13:47.335Z,89.00
2017-10-31T18:16:15.969Z,88.90
2017-10-31T18:18:44.595Z,89.10
2017-10-31T18:21:15.430Z,88.90
2017-10-31T18:23:44.333Z,89.00
2017-10-31T18:26:12.653Z,89.00
2017-10-31T18:28:41.217Z,89.30
2017-10-31T18:31:11.012Z,89.40
2017-10-31T18:33:39.640Z,89.50
2017-10-31T18:36:08.987Z,89.70
2017-10-31T18:38:38.416Z,90.00
2017-10-31T18:41:10.296Z,90.00
2017-10-31T18:43:39.968Z,90.00
2017-10-31T18:46:09.354Z,90.10
2017-10-31T18:48:38.508Z,90.20
2017-10-31T18:51:06.858Z,90.30
2017-10-31T18:53:36.268Z,90.30
2017-10-31T18:56:05.941Z,90.40
2017-10-31T18:58:35.105Z,90.50
2017-10-31T19:01:04.891Z,90.90
2017-10-31T19:03:33.889Z,91.10
2017-10-31T19:06:04.528Z,91.20
2017-10-31T19:08:32.888Z,91.20
2017-10-31T19:11:04.756Z,91.60
2017-10-31T19:13:35.097Z,91.60
2017-10-31T19:16:03.505Z,91.80
2017-10-31T19:18:33.760Z,92.00
2017-10-31T19:21:04.222Z,92.50
2017-10-31T19:23:33.705Z,92.50
2017-10-31T19:26:02.769Z,92.60
2017-10-31T19:28:31.772Z,92.70
2017-10-31T19:31:00.400Z,93.00
2017-10-31T19:33:30.072Z,93.20
2017-10-31T19:35:58.890Z,93.20
2017-10-31T19:38:28.531Z,93.30
2017-10-31T19:40:57.761Z,93.60
2017-10-31T19:43:26.617Z,93.70
2017-10-31T19:45:57.304Z,94.10
2017-10-31T19:48:26.920Z,94.50
2017-10-31T19:50:56.166Z,94.50
2017-10-31T19:53:25.883Z,94.80
2017-10-31T19:55:54.354Z,95.10
2017-10-31T19:58:22.834Z,95.30
2017-10-31T20:00:52.120Z,95.40
2017-10-31T20:03:21.906Z,95.60
2017-10-31T20:05:52.464Z,95.90
2017-10-31T20:08:25.428Z,95.90
2017-10-31T20:10:54.256Z,96.20
2017-10-31T20:13:22.872Z,96.50
2017-10-31T20:15:51.422Z,96.70
2017-10-31T20:18:20.072Z,96.90
2017-10-31T20:20:49.565Z,97.40
2017-10-31T20:23:19.673Z,97.50
2017-10-31T20:25:47.983Z,97.70
2017-10-31T20:28:17.725Z,98.00
2017-10-31T20:30:47.792Z,98.10
2017-10-31T20:33:20.605Z,98.10
2017-10-31T20:35:49.313Z,98.20
2017-10-31T20:38:18.593Z,98.30
2017-10-31T20:40:46.911Z,98.10
2017-10-31T20:43:17.782Z,98.00
2017-10-31T20:45:48.028Z,98.20
2017-10-31T20:48:17.002Z,98.00
2017-10-31T20:50:49.948Z,98.40
2017-10-31T20:53:18.880Z,98.30
2017-10-31T20:55:48.976Z,98.30
2017-10-31T20:58:18.416Z,98.40
2017-10-31T21:00:47.777Z,98.40
2017-10-31T21:03:16.104Z,98.40
2017-10-31T21:05:44.757Z,98.60
2017-10-31T21:08:15.012Z,98.60
2017-10-31T21:10:44.128Z,98.60
2017-10-31T21:13:15.529Z,98.50
2017-10-31T21:15:45.217Z,99.10
2017-10-31T21:18:15.236Z,98.30
2017-10-31T21:20:47.497Z,98.30
2017-10-31T21:23:16.828Z,98.40
2017-10-31T21:25:46.487Z,98.80
2017-10-31T21:28:15.877Z,98.80
2017-10-31T21:30:45.859Z,98.90
2017-10-31T21:33:14.804Z,99.00
2017-10-31T21:35:43.488Z,99.10
2017-10-31T21:38:13.812Z,99.10
2017-10-31T21:40:42.928Z,99.20
2017-10-31T21:43:11.801Z,99.10
2017-10-31T21:45:41.085Z,99.20
2017-10-31T21:48:12.080Z,99.10
2017-10-31T21:50:42.138Z,99.10
2017-10-31T21:53:11.495Z,99.00
2017-10-31T21:55:45.470Z,98.50
2017-10-31T21:58:16.171Z,98.50
2017-10-31T22:00:47.554Z,98.40
2017-10-31T22:03:17.383Z,98.30
2017-10-31T22:05:47.364Z,98.30
2017-10-31T22:08:16.402Z,98.50
2017-10-31T22:10:45.953Z,98.50
2017-10-31T22:13:15.509Z,98.60
2017-10-31T22:15:45.333Z,98.50
2017-10-31T22:18:13.683Z,98.60
2017-10-31T22:20:47.014Z,98.90
2017-10-31T22:23:16.454Z,98.80
2017-10-31T22:25:45.885Z,98.80
2017-10-31T22:28:14.712Z,99.00
2017-10-31T22:30:43.420Z,99.10
2017-10-31T22:33:11.992Z,98.90
2017-10-31T22:35:41.613Z,99.50
2017-10-31T22:38:11.320Z,99.50
2017-10-31T22:40:40.724Z,99.40
2017-10-31T22:43:11.180Z,99.40
2017-10-31T22:45:40.276Z,99.30
2017-10-31T22:48:11.555Z,99.20
2017-10-31T22:50:41.148Z,99.10
2017-10-31T22:53:10.736Z,99.30
2017-10-31T22:55:40.416Z,99.30
2017-10-31T22:58:11.404Z,99.30
2017-10-31T23:00:41.554Z,99.30
2017-10-31T23:03:10.289Z,99.30
2017-10-31T23:05:43.185Z,99.50
2017-10-31T23:08:12.536Z,99.80
2017-10-31T23:10:41.597Z,99.90
2017-10-31T23:13:10.512Z,99.90
2017-10-31T23:15:39.227Z,99.90
2017-10-31T23:18:07.912Z,99.80
2017-10-31T23:20:37.492Z,99.70
2017-10-31T23:23:08.168Z,99.60
2017-10-31T23:25:37.540Z,99.80
2017-10-31T23:28:06.185Z,99.90
2017-10-31T23:30:34.493Z,99.80
2017-10-31T23:33:04.139Z,99.90
2017-10-31T23:35:33.015Z,99.90
2017-10-31T23:38:01.631Z,99.90
2017-10-31T23:40:30.895Z,99.90
2017-10-31T23:43:00.221Z,99.90
2017-10-31T23:45:28.887Z,99.90
2017-10-31T23:47:58.197Z,99.90
2017-10-31T23:50:27.792Z,99.90
2017-10-31T23:52:56.896Z,99.90
2017-10-31T23:55:27.732Z,99.90
2017-10-31T23:57:57.181Z,99.90
